Flight Track Log - Related Links

Times and Time Zones

All times are in EDT time to prevent confusion due to time zone crossing. See the N27XP flight status page for this flight to view local times or setup timezone preferences in your user account.


Time Position Orientation Groundspeed Altitude Reporting Facility
EDT Latitude Longitude Course Direction KTS MPH feet Rate Location/Type
Mon 09:53:44 PM 39.3167 -76.3833 174° South 169 194 1,600  Level Potomac TRACON
Mon 09:54:38 PM 39.2667 -76.3667 166° South 188 216 4,300 3,158 Climbing Potomac TRACON
Mon 09:55:38 PM 39.2167 -76.4000 207° Southwest 188 216 7,600 2,950 Climbing Potomac TRACON
Mon 09:56:38 PM 39.1667 -76.4167 194° South 226 260 10,200 2,632 Climbing Potomac TRACON
Mon 09:57:32 PM 39.1167 -76.4500 207° Southwest 239 275 12,600 2,105 Climbing Potomac TRACON
Mon 09:58:32 PM 39.0500 -76.4833 201° Southwest 271 312 14,200 1,900 Climbing Potomac TRACON
Mon 09:59:00 PM 38.8650 -76.7686 174° South  Level Estimated
Mon 09:59:32 PM 38.9667 -76.5167 197° South 287 330 16,400  Level Potomac TRACON
Mon 10:00:26 PM 38.9000 -76.5500 201° Southwest 299 344 18,000 902 Climbing Potomac TRACON
Mon 10:02:25 PM 38.7378 -76.6403 203° Southwest 338 389 19,000 536 Climbing Washington Center
Mon 10:03:25 PM 38.6414 -76.6894 202° Southwest 361 415 19,600 1,261 Climbing Washington Center
Mon 10:04:24 PM 38.5453 -76.7253 196° South 367 422 21,500 1,200 Climbing Washington Center
Mon 10:05:25 PM 38.4389 -76.7208 178° South 373 429 22,000 248 Climbing Washington Center
Mon 10:06:25 PM 38.3344 -76.7431 189° South 378 435 22,000  Level Washington Center
Mon 10:07:26 PM 38.2256 -76.7917 199° South 378 435 22,000  Level Washington Center
Mon 10:08:26 PM 38.1189 -76.8350 198° South 384 442 22,000  Level Washington Center
Mon 10:09:24 PM 38.0164 -76.8700 195° South 384 442 22,000  Level Washington Center
Mon 10:10:24 PM 37.9117 -76.9078 196° South 384 442 22,000  Level Washington Center
Mon 10:11:24 PM 37.8089 -76.9453 196° South 384 442 22,000  Level Washington Center
Mon 10:12:25 PM 37.7083 -76.9803 195° South 384 442 22,000  Level Washington Center
Mon 10:13:24 PM 37.6036 -77.0178 196° South 384 442 22,000  Level Washington Center
Mon 10:14:25 PM 37.5117 -77.0528 197° South 384 442 22,000  Level Washington Center
Mon 10:15:26 PM 37.3964 -77.0950 196° South 389 448 22,000  Level Washington Center
Mon 10:16:24 PM 37.3017 -77.1453 203° Southwest 389 448 22,000  Level Washington Center
Mon 10:17:26 PM 37.2300 -77.2117 216° Southwest 373 429 22,000  Level Washington Center
Mon 10:18:27 PM 37.1517 -77.2986 222° Southwest 373 429 22,000  Level Washington Center
Mon 10:19:25 PM 37.0794 -77.3831 223° Southwest 367 422 22,000  Level Washington Center
Mon 10:20:26 PM 37.0053 -77.4619 220° Southwest 367 422 22,000 -605 Level Washington Center
Mon 10:21:24 PM 36.9225 -77.5561 222° Southwest 367 422 20,800 -1,008 Descending Washington Center
Mon 10:22:25 PM 36.8458 -77.6422 222° Southwest 367 422 20,000 -397 Descending Washington Center
Mon 10:23:25 PM 36.7692 -77.7258 221° Southwest 367 422 20,000  Level Washington Center
Mon 10:24:26 PM 36.6925 -77.8092 221° Southwest 367 422 20,000  Level Washington Center
Mon 10:25:24 PM 36.6158 -77.8925 221° Southwest 373 429 20,000  Level Washington Center
Mon 10:26:25 PM 36.5392 -77.9781 222° Southwest 373 429 20,000  Level Washington Center
Mon 10:27:25 PM 36.4625 -78.0583 220° Southwest 368 423 20,000 -450 Level Washington Center
Mon 10:28:25 PM 36.3875 -78.1439 223° Southwest 368 423 19,100 -1,140 Descending Washington Center
Mon 10:29:26 PM 36.3108 -78.2236 220° Southwest 368 423 17,700 -1,513 Descending Washington Center
Mon 10:30:24 PM 36.2381 -78.3011 221° Southwest 358 412 16,100 -1,610 Descending Washington Center
Mon 10:30:48 PM 36.2081 -78.3336 221° Southwest 342 394 15,500 -1,500 Descending Washington Center
Mon 10:31:24 PM 36.1675 -78.3783 222° Southwest 353 406 14,600 -1,667 Descending Washington Center
Mon 10:31:42 PM 36.1419 -78.4033 218° Southwest 335 386 14,000 -1,524 Descending Washington Center
Mon 10:32:27 PM 36.0989 -78.4558 225° Southwest 337 388 13,000 -1,429 Descending Washington Center
Mon 10:32:45 PM 36.0733 -78.4806 218° Southwest 334 384 12,500 -1,684 Descending Washington Center
Mon 10:33:24 PM 36.0281 -78.5328 223° Southwest 337 388 11,400 -1,500 Descending Washington Center
Mon 10:33:45 PM 36.0025 -78.5575 218° Southwest 337 388 11,000 -1,100 Descending Washington Center
Mon 10:34:24 PM 35.9575 -78.6072 222° Southwest 342 394 10,300 -923 Descending Washington Center
Mon 10:34:50 PM 35.9253 -78.6392 219° Southwest 335 386 10,000 -286 Descending Washington Center
Mon 10:35:27 PM 35.8889 -78.6789 221° Southwest 342 394 10,000  Level Washington Center
Mon 10:35:45 PM 35.8653 -78.7036 220° Southwest 320 368 10,000  Level Washington Center
Mon 10:36:24 PM 35.8222 -78.7531 223° Southwest 335 386 10,000  Level Washington Center
Mon 10:36:40 PM 35.7989 -78.7728 214° Southwest 319 367 10,000  Level Washington Center
Mon 10:37:25 PM 35.7558 -78.8194 221° Southwest 329 379 10,000  Level Washington Center
Mon 10:37:47 PM 35.7278 -78.8467 218° Southwest 312 359 10,000  Level Washington Center
Mon 10:38:26 PM 35.6892 -78.8911 223° Southwest 324 373 10,000 -490 Level Washington Center
Mon 10:39:25 PM 35.6289 -78.9525 220° Southwest 306 352 9,200 -1,388 Descending Washington Center
Mon 10:40:27 PM 35.5731 -79.0139 222° Southwest 289 333 7,200 -1,935 Descending Washington Center
Mon 10:42:00 PM 35.4641 -79.1251 222° Southwest  Level FlightAware Approximate
Mon 10:49:00 PM 35.2333 -79.3833 219° Southwest  Level FlightAware Approximate

Login

Don't have an account? Register now (free) for customized features, flight alerts, and more!